createdAt,value
2023-02-19T00:05:38.636Z,90.74
2023-02-19T00:08:09.473Z,90.76
2023-02-19T00:10:37.378Z,93.22
2023-02-19T00:13:05.228Z,94.73
2023-02-19T00:15:33.767Z,94.54
2023-02-19T00:18:02.502Z,96.05
2023-02-19T00:20:30.549Z,95.83
2023-02-19T00:44:01.342Z,96.06
2023-02-19T00:46:35.617Z,96.06
2023-02-19T00:49:04.847Z,99.29
2023-02-19T00:51:39.536Z,99.83
2023-02-19T00:54:07.464Z,99.93
2023-02-19T00:56:35.670Z,99.66
2023-02-19T00:59:04.406Z,99.46
2023-02-19T01:19:33.524Z,94.68
2023-02-19T01:22:03.416Z,94.68
2023-02-19T01:24:31.265Z,97.48
2023-02-19T01:26:59.508Z,97.24
2023-02-19T01:29:28.411Z,97.55
2023-02-19T01:31:56.718Z,97.02
2023-02-19T01:34:24.674Z,97.35
2023-02-19T01:52:36.082Z,95.50
2023-02-19T01:55:11.045Z,95.50
2023-02-19T01:57:44.794Z,98.22
2023-02-19T02:00:15.693Z,98.24
2023-02-19T02:02:49.944Z,98.27
2023-02-19T02:30:10.025Z,96.96
2023-02-19T02:32:53.636Z,96.96
2023-02-19T02:35:27.052Z,99.21
2023-02-19T02:38:00.944Z,98.55
2023-02-19T02:40:29.928Z,99.83
2023-02-19T02:43:00.954Z,100.00
2023-02-19T02:45:38.242Z,100.00
2023-02-19T03:08:17.925Z,100.00
2023-02-19T03:11:24.962Z,100.00
2023-02-19T03:14:36.384Z,100.00
2023-02-19T03:17:32.057Z,100.00
2023-02-19T03:20:03.667Z,100.00
2023-02-19T03:41:36.793Z,100.00
2023-02-19T03:44:29.660Z,100.00
2023-02-19T03:47:09.899Z,100.00
2023-02-19T03:49:50.033Z,100.00
2023-02-19T03:52:36.469Z,100.00
2023-02-19T03:55:12.489Z,100.00
2023-02-19T04:16:34.908Z,100.00
2023-02-19T04:19:09.005Z,100.00
2023-02-19T04:21:38.460Z,100.00
2023-02-19T04:24:17.027Z,100.00
2023-02-19T04:26:46.389Z,100.00
2023-02-19T04:29:14.705Z,100.00
2023-02-19T04:31:42.890Z,100.00
2023-02-19T04:54:50.139Z,95.17
2023-02-19T04:57:18.680Z,95.17
2023-02-19T04:59:47.826Z,97.43
2023-02-19T05:02:15.816Z,97.53
2023-02-19T05:04:44.796Z,97.27
2023-02-19T05:07:12.789Z,96.90
2023-02-19T05:09:40.897Z,96.71
2023-02-19T05:35:16.880Z,92.94
2023-02-19T05:37:45.697Z,92.94
2023-02-19T05:40:14.884Z,95.29
2023-02-19T05:42:42.988Z,95.59
2023-02-19T05:45:11.832Z,95.60
2023-02-19T05:47:40.218Z,95.66
2023-02-19T05:50:08.973Z,95.75
2023-02-19T06:12:53.761Z,93.07
2023-02-19T06:15:22.852Z,93.07
2023-02-19T06:17:50.752Z,95.64
2023-02-19T06:20:19.845Z,95.63
2023-02-19T06:22:50.504Z,95.31
2023-02-19T06:25:20.898Z,95.04
2023-02-19T06:27:49.697Z,94.61
2023-02-19T06:48:34.734Z,90.83
2023-02-19T06:51:03.885Z,90.83
2023-02-19T06:53:31.961Z,92.74
2023-02-19T06:56:06.886Z,92.77
2023-02-19T06:58:35.105Z,92.68
2023-02-19T07:01:03.780Z,92.56
2023-02-19T07:03:32.061Z,92.46
2023-02-19T07:26:43.584Z,93.09
2023-02-19T07:29:12.475Z,93.09
2023-02-19T07:31:41.600Z,95.84
2023-02-19T07:34:09.527Z,96.21
2023-02-19T07:36:38.577Z,96.08
2023-02-19T07:39:08.078Z,97.04
2023-02-19T07:41:38.509Z,97.06
2023-02-19T08:04:39.883Z,94.46
2023-02-19T08:07:08.577Z,94.46
2023-02-19T08:09:38.221Z,96.67
2023-02-19T08:12:25.841Z,98.20
2023-02-19T08:14:54.095Z,97.62
2023-02-19T08:17:22.057Z,99.19
2023-02-19T08:19:51.559Z,97.95
2023-02-19T08:22:19.876Z,98.35
2023-02-19T08:42:43.060Z,97.07
2023-02-19T08:45:11.860Z,97.07
2023-02-19T08:47:40.103Z,99.76
2023-02-19T08:50:10.818Z,100.00
2023-02-19T08:52:39.054Z,100.00
2023-02-19T08:55:07.828Z,100.00
2023-02-19T08:57:38.535Z,100.00
2023-02-19T09:00:09.486Z,99.92
2023-02-19T09:02:37.798Z,99.08
2023-02-19T09:22:43.747Z,88.34
2023-02-19T09:25:12.736Z,88.34
2023-02-19T09:27:41.336Z,90.49
2023-02-19T09:30:09.871Z,89.37
2023-02-19T09:32:39.427Z,89.90
2023-02-19T09:35:07.629Z,90.47
2023-02-19T09:37:38.573Z,90.94
2023-02-19T09:40:07.321Z,90.64
2023-02-19T10:01:06.243Z,86.10
2023-02-19T10:03:41.496Z,86.10
2023-02-19T10:06:27.165Z,88.21
2023-02-19T10:09:11.786Z,88.10
2023-02-19T10:11:40.536Z,86.06
2023-02-19T10:14:17.618Z,86.15
2023-02-19T10:19:31.565Z,87.44
2023-02-19T10:37:52.018Z,79.94
2023-02-19T10:40:25.652Z,79.94
2023-02-19T10:43:02.027Z,80.71
2023-02-19T10:45:36.292Z,80.87
2023-02-19T10:48:21.325Z,80.40
2023-02-19T10:50:56.190Z,80.46
2023-02-19T10:53:44.053Z,80.96
2023-02-19T11:17:30.695Z,75.14
2023-02-19T11:20:07.638Z,75.14
2023-02-19T11:22:46.929Z,77.01
2023-02-19T11:25:15.302Z,75.93
2023-02-19T11:27:58.548Z,76.09
2023-02-19T11:30:38.411Z,75.85
2023-02-19T11:53:20.829Z,70.82
2023-02-19T11:56:08.018Z,70.82
2023-02-19T11:59:02.853Z,72.31
2023-02-19T12:01:57.463Z,71.88
2023-02-19T12:04:44.715Z,70.50
2023-02-19T12:07:26.378Z,68.83
2023-02-19T12:32:36.421Z,66.00
2023-02-19T12:35:20.483Z,66.00
2023-02-19T12:38:09.736Z,67.52
2023-02-19T12:40:38.085Z,67.41
2023-02-19T12:43:31.754Z,67.29
2023-02-19T12:46:08.235Z,68.14
2023-02-19T13:13:34.714Z,61.73
2023-02-19T13:16:16.068Z,61.73
2023-02-19T13:18:58.397Z,63.14
2023-02-19T13:21:51.164Z,63.40
2023-02-19T13:24:27.942Z,64.02
2023-02-19T13:27:14.519Z,65.21
2023-02-19T13:30:22.461Z,65.84
2023-02-19T13:51:21.734Z,63.76
2023-02-19T13:53:56.798Z,63.76
2023-02-19T13:56:36.919Z,64.31
2023-02-19T13:59:11.330Z,64.66
2023-02-19T14:01:55.123Z,61.44
2023-02-19T14:04:43.892Z,62.13
2023-02-19T14:07:11.879Z,63.29
2023-02-19T14:09:40.777Z,63.75
2023-02-19T14:28:22.258Z,64.26
2023-02-19T14:31:11.872Z,64.26
2023-02-19T14:33:46.260Z,65.07
2023-02-19T14:36:33.201Z,65.76
2023-02-19T14:39:11.209Z,65.50
2023-02-19T14:41:44.290Z,66.33
2023-02-19T15:05:36.779Z,56.45
2023-02-19T15:08:22.761Z,56.45
2023-02-19T15:10:51.125Z,57.86
2023-02-19T15:13:26.513Z,60.98
2023-02-19T15:15:55.630Z,60.46
2023-02-19T15:18:26.773Z,60.04
2023-02-19T15:21:05.912Z,57.67
2023-02-19T15:23:36.114Z,57.94
2023-02-19T15:26:04.637Z,59.23
2023-02-19T15:44:35.086Z,57.30
2023-02-19T15:47:33.783Z,57.30
2023-02-19T15:50:31.656Z,59.03
2023-02-19T15:53:09.560Z,60.32
2023-02-19T15:55:46.704Z,61.36
2023-02-19T15:58:29.810Z,61.43
2023-02-19T16:01:23.945Z,61.60
2023-02-19T16:24:41.080Z,62.49
2023-02-19T16:27:10.019Z,62.49
2023-02-19T16:29:39.836Z,63.64
2023-02-19T16:32:17.217Z,63.52
2023-02-19T16:34:47.836Z,62.80
2023-02-19T16:37:40.995Z,62.28
2023-02-19T16:40:11.275Z,62.62
2023-02-19T17:00:31.686Z,74.62
2023-02-19T17:03:09.131Z,74.62
2023-02-19T17:05:39.410Z,83.38
2023-02-19T17:08:39.009Z,88.28
2023-02-19T17:11:12.468Z,91.89
2023-02-19T17:13:42.160Z,92.96
2023-02-19T17:16:40.466Z,94.67
2023-02-19T17:19:14.602Z,93.50
2023-02-19T17:45:30.290Z,90.49
2023-02-19T17:48:00.723Z,90.49
2023-02-19T17:50:32.202Z,92.49
2023-02-19T17:53:00.750Z,92.53
2023-02-19T17:55:29.697Z,92.13
2023-02-19T17:57:58.764Z,92.03
2023-02-19T18:00:30.245Z,91.04
2023-02-19T18:02:59.869Z,89.97
2023-02-19T18:05:28.304Z,88.42
2023-02-19T18:28:15.086Z,96.63
2023-02-19T18:30:44.236Z,96.63
2023-02-19T18:33:13.558Z,98.45
2023-02-19T18:35:41.876Z,97.97
2023-02-19T18:38:10.196Z,96.45
2023-02-19T18:40:39.222Z,94.93
2023-02-19T18:43:07.389Z,94.51
2023-02-19T18:45:37.374Z,94.74
2023-02-19T19:08:19.784Z,94.59
2023-02-19T19:10:51.432Z,94.59
2023-02-19T19:13:19.728Z,97.01
2023-02-19T19:15:51.716Z,97.64
2023-02-19T19:18:20.825Z,98.08
2023-02-19T19:20:49.669Z,98.01
2023-02-19T19:23:18.071Z,98.22
2023-02-19T19:43:40.309Z,94.27
2023-02-19T19:46:10.100Z,94.27
2023-02-19T19:48:41.737Z,94.98
2023-02-19T19:51:10.759Z,94.73
2023-02-19T19:53:39.418Z,93.70
2023-02-19T19:56:08.378Z,92.61
2023-02-19T19:58:37.497Z,92.21
2023-02-19T20:01:09.328Z,91.80
2023-02-19T20:03:38.078Z,92.01
2023-02-19T20:06:06.639Z,92.62
2023-02-19T20:08:42.283Z,91.33
2023-02-19T20:28:58.369Z,86.82
2023-02-19T20:31:27.857Z,86.82
2023-02-19T20:33:55.934Z,89.59
2023-02-19T20:36:28.489Z,89.93
2023-02-19T20:38:57.144Z,89.48
2023-02-19T20:41:25.533Z,90.15
2023-02-19T20:43:54.084Z,90.91
2023-02-19T20:46:22.484Z,90.97
2023-02-19T20:48:51.994Z,91.60
2023-02-19T21:08:51.604Z,89.79
2023-02-19T21:11:20.653Z,89.79
2023-02-19T21:13:48.680Z,92.10
2023-02-19T21:16:17.442Z,92.98
2023-02-19T21:18:46.353Z,90.96
2023-02-19T21:21:18.237Z,92.25
2023-02-19T21:23:47.382Z,92.86
2023-02-19T21:26:21.537Z,92.13
2023-02-19T21:51:50.573Z,86.03
2023-02-19T21:54:25.114Z,86.53
2023-02-19T21:56:54.057Z,86.69
2023-02-19T21:59:22.894Z,85.37
2023-02-19T22:01:51.195Z,85.19
2023-02-19T22:04:24.705Z,85.83
2023-02-19T22:06:56.410Z,84.22
2023-02-19T22:09:24.973Z,84.69
2023-02-19T22:11:53.029Z,84.51
2023-02-19T22:14:20.984Z,80.61
2023-02-19T22:16:49.913Z,78.77
2023-02-19T22:36:48.713Z,74.94
2023-02-19T22:39:23.282Z,74.94
2023-02-19T22:41:52.145Z,76.73
2023-02-19T22:44:20.632Z,76.90
2023-02-19T22:46:53.709Z,75.54
2023-02-19T22:49:23.587Z,77.11
2023-02-19T23:17:19.989Z,66.71
2023-02-19T23:19:49.960Z,66.71
2023-02-19T23:22:18.026Z,68.70
2023-02-19T23:24:45.925Z,68.45
2023-02-19T23:27:16.006Z,67.31
2023-02-19T23:29:45.845Z,67.45
2023-02-19T23:32:14.699Z,66.76
2023-02-19T23:55:19.201Z,66.16
2023-02-19T23:57:48.043Z,68.25
